Time;durP1;ratioP1;P1;durP2;ratioP2;P2;SDS_P1;SDS_P2;PMS_P1;PMS_P2;Temp;Humidity;BMP_temperature;BMP_pressure;BME280_temperature;BME280_humidity;BME280_pressure;Samples;Min_cycle;Max_cycle;Signal;HPM_P1;HPM_P2
2023/04/14 00:00:39;;;;;;;;;;;;;;;2.64;93.01;101106.25;5048305;28;19945;-71
2023/04/14 00:03:05;;;;;;;;;;;;;;;2.50;92.92;101109.13;5026914;28;19985;-73
2023/04/14 00:05:31;;;;;;;;;;;;;;;2.55;93.33;101107.47;5050304;28;19986;-73
2023/04/14 00:07:57;;;;;;;;;;;;;;;2.51;93.07;101101.00;5060769;28;20308;-72
2023/04/14 00:10:23;;;;;;;;;;;;;;;2.38;92.72;101108.97;5045719;28;20034;-72
2023/04/14 00:12:49;;;;;;;;;;;;;;;2.35;92.72;101107.53;5045118;28;19942;-71
2023/04/14 00:15:15;;;;;;;;;;;;;;;2.32;93.16;101094.72;5049807;28;20183;-73
2023/04/14 00:17:40;;;;;;;;;;;;;;;2.38;93.46;101106.31;5048307;28;19968;-73
2023/04/14 00:20:07;;;;;;;;;;;;;;;2.27;92.66;101105.09;5058023;28;19947;-73
2023/04/14 00:22:32;;;;;;;;;;;;;;;2.36;93.64;101114.44;5047775;28;19967;-72
2023/04/14 00:24:58;;;;;;;;;;;;;;;2.37;93.61;101116.09;5044113;28;19958;-73
2023/04/14 00:27:23;;;;;;;;;;;;;;;2.31;93.07;101116.09;5041004;28;19977;-72
2023/04/14 00:29:50;;;;;;;;;;;;;;;2.43;92.85;101109.13;5056920;28;19971;-72
2023/04/14 00:32:16;;;;;;;;;;;;;;;2.32;93.51;101118.53;5039747;28;19982;-72
2023/04/14 00:34:41;;;;;;;;;;;;;;;2.32;93.50;101117.72;5044487;28;20016;-72
2023/04/14 00:37:07;;;;;;;;;;;;;;;2.30;93.12;101123.19;5044790;28;20011;-73
2023/04/14 00:39:32;;;;;;;;;;;;;;;2.29;93.09;101129.50;5038274;28;19996;-71
2023/04/14 00:42:00;;;;;;;;;;;;;;;2.21;92.90;101124.41;5037993;28;19951;-71
2023/04/14 00:44:26;;;;;;;;;;;;;;;2.12;93.10;101133.59;5048550;28;19990;-73
2023/04/14 00:46:52;;;;;;;;;;;;;;;2.12;93.35;101128.31;5033565;28;20307;-73
2023/04/14 00:49:18;;;;;;;;;;;;;;;2.11;92.87;101130.13;5052055;28;20583;-73
2023/04/14 00:51:45;;;;;;;;;;;;;;;1.97;92.71;101132.97;5060472;28;19972;-70
2023/04/14 00:54:12;;;;;;;;;;;;;;;1.91;93.21;101138.06;5043855;28;19956;-72
2023/04/14 00:56:38;;;;;;;;;;;;;;;1.97;93.02;101139.06;5065049;28;19954;-72
2023/04/14 00:59:05;;;;;;;;;;;;;;;1.94;93.01;101134.19;5047469;28;19938;-71
2023/04/14 01:01:33;;;;;;;;;;;;;;;2.01;93.25;101139.47;5061607;28;19945;-72
2023/04/14 01:03:59;;;;;;;;;;;;;;;1.88;93.02;101140.28;5060630;28;20495;-72
2023/04/14 01:06:26;;;;;;;;;;;;;;;1.88;93.04;101142.91;5062856;28;19939;-73
2023/04/14 01:08:52;;;;;;;;;;;;;;;1.83;92.90;101146.19;5049726;28;19934;-72
2023/04/14 01:11:20;;;;;;;;;;;;;;;1.80;92.76;101151.03;5049029;28;19939;-71
2023/04/14 01:13:52;;;;;;;;;;;;;;;1.95;93.46;101153.47;5049035;28;19961;-72
2023/04/14 01:16:20;;;;;;;;;;;;;;;2.06;94.00;101144.97;5034887;28;20036;-71
2023/04/14 01:19:05;;;;;;;;;;;;;;;1.96;93.30;101144.53;5047716;28;19985;-71
2023/04/14 01:21:34;;;;;;;;;;;;;;;1.92;92.94;101150.25;5057709;28;20010;-72
2023/04/14 01:24:05;;;;;;;;;;;;;;;1.95;93.65;101149.00;5043254;28;19992;-71
2023/04/14 01:26:32;;;;;;;;;;;;;;;1.85;93.34;101154.72;5033910;28;20353;-72
2023/04/14 01:28:58;;;;;;;;;;;;;;;1.85;93.35;101153.91;5053390;28;19947;-71
2023/04/14 01:31:25;;;;;;;;;;;;;;;1.80;93.23;101151.03;5047046;28;19935;-72
2023/04/14 01:33:55;;;;;;;;;;;;;;;1.72;92.96;101154.69;5062818;28;19951;-72
2023/04/14 01:36:27;;;;;;;;;;;;;;;1.60;93.07;101146.53;5050977;28;20387;-72
2023/04/14 01:38:53;;;;;;;;;;;;;;;1.57;93.40;101151.41;5047091;28;19931;-72
2023/04/14 01:41:20;;;;;;;;;;;;;;;1.55;93.47;101148.16;5031087;28;20679;-71
2023/04/14 01:43:48;;;;;;;;;;;;;;;1.56;93.33;101147.16;5046454;28;19978;-73
2023/04/14 01:46:15;;;;;;;;;;;;;;;1.50;93.01;101153.22;5028693;28;19943;-72
2023/04/14 01:48:40;;;;;;;;;;;;;;;1.58;94.02;101147.75;5042553;28;19940;-73
2023/04/14 01:51:06;;;;;;;;;;;;;;;1.63;93.73;101154.06;5045490;28;19929;-73
2023/04/14 01:53:34;;;;;;;;;;;;;;;1.60;93.52;101145.72;5074171;28;19940;-71
2023/04/14 01:56:01;;;;;;;;;;;;;;;1.63;93.48;101142.69;5061836;28;19928;-73
2023/04/14 01:58:29;;;;;;;;;;;;;;;1.66;93.68;101142.28;5047922;28;19931;-72
2023/04/14 02:00:55;;;;;;;;;;;;;;;1.69;93.93;101147.16;5073965;28;19934;-72
2023/04/14 02:03:22;;;;;;;;;;;;;;;1.66;93.46;101154.69;5047904;28;19961;-72
2023/04/14 02:05:48;;;;;;;;;;;;;;;1.49;93.50;101151.59;5065032;28;19924;-72
2023/04/14 02:08:15;;;;;;;;;;;;;;;1.29;93.03;101149.72;5042778;28;20797;-72
2023/04/14 02:10:43;;;;;;;;;;;;;;;1.21;93.38;101152.53;5061793;28;20026;-73
2023/04/14 02:13:10;;;;;;;;;;;;;;;1.14;93.94;101149.03;5062105;28;19930;-73
2023/04/14 02:15:38;;;;;;;;;;;;;;;1.29;93.99;101155.00;5066578;28;19954;-73
2023/04/14 02:18:05;;;;;;;;;;;;;;;1.39;94.24;101159.09;5050257;28;19934;-72
2023/04/14 02:20:31;;;;;;;;;;;;;;;1.44;94.23;101151.38;5061470;28;19947;-72
2023/04/14 02:22:57;;;;;;;;;;;;;;;1.42;94.13;101150.75;5048115;28;20479;-72
2023/04/14 02:25:24;;;;;;;;;;;;;;;1.31;94.01;101152.97;5057261;28;19953;-72
2023/04/14 02:27:57;;;;;;;;;;;;;;;1.24;93.58;101160.06;5047472;28;19988;-73
2023/04/14 02:30:30;;;;;;;;;;;;;;;1.17;93.32;101166.31;5047510;28;19959;-72
2023/04/14 02:33:00;;;;;;;;;;;;;;;1.15;93.92;101169.13;5047500;28;19935;-72
2023/04/14 02:35:27;;;;;;;;;;;;;;;1.12;93.70;101168.72;5048284;28;19954;-72
2023/04/14 02:37:55;;;;;;;;;;;;;;;1.15;93.83;101168.31;5052226;28;19935;-72
2023/04/14 02:40:21;;;;;;;;;;;;;;;1.09;94.11;101175.22;5058990;28;19936;-71
2023/04/14 02:42:50;;;;;;;;;;;;;;;1.12;93.95;101174.81;5065604;28;19967;-72
2023/04/14 02:45:21;;;;;;;;;;;;;;;1.10;93.89;101176.84;5059104;28;19964;-72
2023/04/14 02:47:51;;;;;;;;;;;;;;;1.04;93.70;101185.53;5045084;28;19949;-72
2023/04/14 02:50:20;;;;;;;;;;;;;;;1.02;93.99;101180.47;5045920;28;19938;-71
2023/04/14 02:52:58;;;;;;;;;;;;;;;1.06;94.17;101176.41;5050779;28;19956;-71
2023/04/14 02:55:29;;;;;;;;;;;;;;;1.11;94.28;101181.09;5049764;28;19954;-72
2023/04/14 02:57:55;;;;;;;;;;;;;;;1.04;93.83;101185.53;5059654;28;19936;-71
2023/04/14 03:00:22;;;;;;;;;;;;;;;1.02;94.00;101184.94;5048979;28;20326;-72
2023/04/14 03:02:51;;;;;;;;;;;;;;;0.95;93.87;101184.06;5048362;28;20015;-72
2023/04/14 03:05:19;;;;;;;;;;;;;;;0.93;94.14;101186.91;5062867;28;19954;-72
2023/04/14 03:07:54;;;;;;;;;;;;;;;1.02;94.21;101184.94;5048840;28;20387;-71
2023/04/14 03:10:21;;;;;;;;;;;;;;;0.98;94.15;101189.75;5063226;28;20026;-72
2023/04/14 03:12:49;;;;;;;;;;;;;;;0.90;94.03;101189.13;5060326;28;19938;-73
2023/04/14 03:15:16;;;;;;;;;;;;;;;0.94;93.72;101185.06;5062813;28;20033;-72
2023/04/14 03:17:43;;;;;;;;;;;;;;;0.83;93.75;101186.44;5042220;28;19933;-71
2023/04/14 03:20:11;;;;;;;;;;;;;;;0.84;93.68;101187.25;5037450;28;20386;-73
2023/04/14 03:22:39;;;;;;;;;;;;;;;0.79;93.45;101185.19;5040558;28;20327;-72
2023/04/14 03:25:11;;;;;;;;;;;;;;;0.80;93.76;101189.47;5048680;28;19967;-72
2023/04/14 03:27:37;;;;;;;;;;;;;;;0.73;93.71;101192.06;5051406;28;19983;-72
2023/04/14 03:30:04;;;;;;;;;;;;;;;0.67;93.70;101186.75;5029304;28;19932;-71
2023/04/14 03:32:34;;;;;;;;;;;;;;;0.70;93.93;101187.19;5050329;28;20415;-71
2023/04/14 03:35:00;;;;;;;;;;;;;;;0.69;93.80;101190.81;5061699;28;19988;-72
2023/04/14 03:37:27;;;;;;;;;;;;;;;0.63;93.70;101191.59;5031426;28;19946;-73
2023/04/14 03:39:57;;;;;;;;;;;;;;;0.65;93.65;101189.56;5062320;28;19937;-73
2023/04/14 03:42:24;;;;;;;;;;;;;;;0.76;93.88;101188.22;5027173;28;19959;-73
2023/04/14 03:44:53;;;;;;;;;;;;;;;1.07;94.67;101187.78;5062508;28;19965;-72
2023/04/14 03:47:22;;;;;;;;;;;;;;;0.97;94.14;101189.97;5029190;28;19935;-73
2023/04/14 03:49:49;;;;;;;;;;;;;;;0.76;93.89;101185.59;5046668;28;19933;-72
2023/04/14 03:52:16;;;;;;;;;;;;;;;0.77;93.73;101187.22;5044627;28;20440;-71
2023/04/14 03:54:42;;;;;;;;;;;;;;;0.75;93.87;101195.34;5063001;28;20045;-72
2023/04/14 03:57:10;;;;;;;;;;;;;;;0.82;94.17;101195.38;5047364;28;19989;-72
2023/04/14 03:59:37;;;;;;;;;;;;;;;0.73;94.17;101197.31;5043414;28;19937;-72
2023/04/14 04:02:06;;;;;;;;;;;;;;;0.69;94.03;101198.75;5058067;28;19975;-71
2023/04/14 04:04:33;;;;;;;;;;;;;;;0.71;94.17;101194.06;5073231;28;19949;-72
2023/04/14 04:06:59;;;;;;;;;;;;;;;0.66;93.96;101198.28;5031329;28;19935;-71
2023/04/14 04:09:25;;;;;;;;;;;;;;;0.81;93.79;101205.09;5046671;28;19936;-73
2023/04/14 04:11:52;;;;;;;;;;;;;;;0.76;94.00;101202.22;5048847;28;20061;-71
2023/04/14 04:14:18;;;;;;;;;;;;;;;0.80;93.96;101202.63;5059848;28;19952;-71
2023/04/14 04:16:46;;;;;;;;;;;;;;;0.81;94.40;101202.47;5063299;28;20024;-72
2023/04/14 04:19:13;;;;;;;;;;;;;;;0.83;94.18;101207.53;5059929;28;20048;-71
2023/04/14 04:21:39;;;;;;;;;;;;;;;0.84;94.19;101203.09;5044488;28;19916;-71
2023/04/14 04:24:08;;;;;;;;;;;;;;;0.92;93.97;101206.38;5032218;28;20465;-72
2023/04/14 04:26:34;;;;;;;;;;;;;;;0.89;93.93;101212.03;5055205;28;19969;-73
2023/04/14 04:29:01;;;;;;;;;;;;;;;0.86;93.89;101216.88;5045510;28;20357;-71
2023/04/14 04:31:27;;;;;;;;;;;;;;;0.82;94.01;101214.63;5036665;28;19935;-72
2023/04/14 04:33:54;;;;;;;;;;;;;;;0.81;94.02;101220.09;5062700;28;19973;-71
2023/04/14 04:36:20;;;;;;;;;;;;;;;0.81;94.03;101209.53;5045587;28;19935;-72
2023/04/14 04:38:48;;;;;;;;;;;;;;;0.78;93.67;101209.94;5045221;28;19974;-72
2023/04/14 04:41:23;;;;;;;;;;;;;;;0.76;93.73;101206.69;5059192;28;20323;-73
2023/04/14 04:43:50;;;;;;;;;;;;;;;0.76;93.33;101210.13;5031359;28;19962;-72
2023/04/14 04:46:34;;;;;;;;;;;;;;;0.72;93.55;101206.25;5031617;28;19931;-71
2023/04/14 04:49:00;;;;;;;;;;;;;;;0.67;93.58;101211.28;5054570;28;19936;-72
2023/04/14 04:51:25;;;;;;;;;;;;;;;0.71;94.19;101212.53;5064713;28;19944;-72
2023/04/14 04:53:51;;;;;;;;;;;;;;;0.62;93.93;101211.06;5046838;28;20315;-72
2023/04/14 04:56:16;;;;;;;;;;;;;;;0.62;93.70;101221.59;5049158;28;20003;-72
2023/04/14 04:58:42;;;;;;;;;;;;;;;0.75;94.25;101215.63;5047917;28;19968;-72
2023/04/14 05:01:08;;;;;;;;;;;;;;;0.81;94.29;101215.66;5063799;28;19934;-72
2023/04/14 05:03:33;;;;;;;;;;;;;;;0.80;93.77;101214.00;5078215;28;19960;-71
2023/04/14 05:06:01;;;;;;;;;;;;;;;0.84;93.72;101213.63;5034738;28;19966;-72
2023/04/14 05:08:27;;;;;;;;;;;;;;;0.85;93.79;101210.78;5081380;28;20018;-72
2023/04/14 05:10:52;;;;;;;;;;;;;;;0.88;94.38;101207.78;5052085;28;20048;-71
2023/04/14 05:13:18;;;;;;;;;;;;;;;0.91;94.44;101209.22;5064755;28;19963;-72
2023/04/14 05:15:43;;;;;;;;;;;;;;;0.89;94.36;101203.31;5050628;28;19949;-72
2023/04/14 05:18:09;;;;;;;;;;;;;;;0.94;94.43;101206.97;5033106;28;20404;-71
2023/04/14 05:20:35;;;;;;;;;;;;;;;1.01;94.65;101212.28;5061557;28;20472;-71
2023/04/14 05:23:01;;;;;;;;;;;;;;;1.13;94.57;101213.38;5063055;28;19951;-72
2023/04/14 05:25:27;;;;;;;;;;;;;;;1.25;94.73;101208.34;5047314;28;19948;-71
2023/04/14 05:27:52;;;;;;;;;;;;;;;1.42;94.93;101214.91;5063343;28;19943;-72
2023/04/14 05:30:18;;;;;;;;;;;;;;;1.54;95.21;101215.97;5063261;28;19965;-72
2023/04/14 05:32:44;;;;;;;;;;;;;;;1.71;95.10;101220.91;5052907;28;19934;-72
2023/04/14 05:35:09;;;;;;;;;;;;;;;1.73;94.79;101226.78;5034689;28;19952;-72
2023/04/14 05:37:34;;;;;;;;;;;;;;;1.77;95.02;101220.94;5071277;28;20341;-72
2023/04/14 05:40:00;;;;;;;;;;;;;;;1.78;94.84;101216.47;5061905;28;19964;-72
2023/04/14 05:42:25;;;;;;;;;;;;;;;1.88;94.75;101217.69;5048502;28;19958;-74
2023/04/14 05:44:51;;;;;;;;;;;;;;;2.00;94.91;101214.47;5085016;28;20101;-71
2023/04/14 05:47:16;;;;;;;;;;;;;;;2.05;94.88;101222.59;5063733;28;19943;-71
2023/04/14 05:49:42;;;;;;;;;;;;;;;2.06;95.40;101222.41;5035080;28;20342;-72
2023/04/14 05:52:08;;;;;;;;;;;;;;;2.11;95.02;101224.44;5051399;28;19947;-71
2023/04/14 05:54:34;;;;;;;;;;;;;;;2.18;94.80;101227.91;5064182;28;20005;-73
2023/04/14 05:56:59;;;;;;;;;;;;;;;2.26;94.91;101225.06;5063259;28;20434;-71
2023/04/14 05:59:26;;;;;;;;;;;;;;;2.36;95.04;101230.72;5069893;28;20038;-72
2023/04/14 06:01:51;;;;;;;;;;;;;;;2.43;95.10;101228.09;5045734;28;19933;-72
2023/04/14 06:04:17;;;;;;;;;;;;;;;2.51;94.73;101224.41;5033088;28;19952;-72
2023/04/14 06:06:42;;;;;;;;;;;;;;;2.58;95.16;101227.91;5071173;28;20041;-72
2023/04/14 06:09:08;;;;;;;;;;;;;;;2.70;94.77;101229.69;5046502;28;20108;-71
2023/04/14 06:11:34;;;;;;;;;;;;;;;2.89;94.50;101229.88;5061845;28;19941;-72
2023/04/14 06:14:01;;;;;;;;;;;;;;;3.03;94.50;101226.19;5045752;28;19947;-73
2023/04/14 06:16:27;;;;;;;;;;;;;;;3.20;94.15;101227.34;5065072;28;20043;-71
2023/04/14 06:18:52;;;;;;;;;;;;;;;3.32;94.25;101226.69;5044289;28;20030;-71
2023/04/14 06:21:18;;;;;;;;;;;;;;;3.44;94.02;101223.19;5050608;28;20000;-72
2023/04/14 06:23:44;;;;;;;;;;;;;;;3.55;93.63;101225.19;5030588;28;20390;-73
2023/04/14 06:26:10;;;;;;;;;;;;;;;3.66;94.05;101225.50;5060689;28;19950;-71
2023/04/14 06:28:36;;;;;;;;;;;;;;;3.75;93.46;101224.25;5044970;28;19993;-71
2023/04/14 06:31:02;;;;;;;;;;;;;;;3.89;93.42;101220.50;5080070;28;19935;-72
2023/04/14 06:33:27;;;;;;;;;;;;;;;4.10;93.32;101227.31;5073775;28;20300;-73
2023/04/14 06:36:00;;;;;;;;;;;;;;;4.23;92.45;101226.41;5063316;28;19953;-72
2023/04/14 06:38:26;;;;;;;;;;;;;;;4.32;92.85;101219.78;5074850;28;19939;-71
2023/04/14 06:40:52;;;;;;;;;;;;;;;4.41;92.32;101229.13;5060148;28;20009;-72
2023/04/14 06:43:18;;;;;;;;;;;;;;;4.45;91.79;101214.38;5048947;28;19955;-72
2023/04/14 06:45:44;;;;;;;;;;;;;;;4.63;91.41;101221.56;5080307;28;19956;-71
2023/04/14 06:48:12;;;;;;;;;;;;;;;4.80;91.24;101219.16;5063381;28;20450;-73
2023/04/14 06:50:37;;;;;;;;;;;;;;;4.95;91.80;101218.81;5048340;28;20469;-72
2023/04/14 06:53:06;;;;;;;;;;;;;;;5.01;91.78;101216.06;5046453;28;19974;-72
2023/04/14 06:55:33;;;;;;;;;;;;;;;5.19;90.91;101207.28;5065041;28;19950;-73
2023/04/14 06:57:59;;;;;;;;;;;;;;;5.35;92.04;101213.84;5045939;28;19936;-71
2023/04/14 07:00:25;;;;;;;;;;;;;;;5.53;89.96;101221.78;5044693;28;19941;-71
2023/04/14 07:03:09;;;;;;;;;;;;;;;5.79;87.98;101214.50;5058704;28;19954;-71
2023/04/14 07:05:35;;;;;;;;;;;;;;;5.93;86.30;101215.97;5051644;28;19950;-70
2023/04/14 07:08:00;;;;;;;;;;;;;;;6.22;88.71;101220.41;5063403;28;20390;-71
2023/04/14 07:10:26;;;;;;;;;;;;;;;6.36;83.85;101213.03;5028273;28;19940;-71
2023/04/14 07:12:52;;;;;;;;;;;;;;;6.59;85.13;101214.91;5057218;28;19935;-71
2023/04/14 07:15:17;;;;;;;;;;;;;;;6.79;84.76;101210.03;5061287;28;19951;-71
2023/04/14 07:17:43;;;;;;;;;;;;;;;6.94;80.29;101216.75;5048137;28;19932;-72
2023/04/14 07:20:09;;;;;;;;;;;;;;;7.11;79.59;101209.63;5025698;28;20006;-72
2023/04/14 07:22:35;;;;;;;;;;;;;;;7.30;80.23;101207.63;5063356;28;19964;-71
2023/04/14 07:25:00;;;;;;;;;;;;;;;7.28;77.65;101207.88;5070988;28;19943;-71
2023/04/14 07:27:27;;;;;;;;;;;;;;;7.38;79.24;101210.75;5059650;28;19964;-71
2023/04/14 07:29:53;;;;;;;;;;;;;;;7.55;79.37;101213.47;5055259;28;20327;-71
2023/04/14 07:32:18;;;;;;;;;;;;;;;7.54;76.63;101211.03;5036350;28;19929;-72
2023/04/14 07:34:44;;;;;;;;;;;;;;;7.74;77.62;101199.94;5062441;28;19955;-71
2023/04/14 07:37:10;;;;;;;;;;;;;;;7.82;75.82;101208.34;5061141;28;19933;-71
2023/04/14 07:39:36;;;;;;;;;;;;;;;7.83;75.23;101209.97;5061746;28;20066;-71
2023/04/14 07:42:01;;;;;;;;;;;;;;;7.79;75.71;101205.34;5059422;28;20401;-73
2023/04/14 07:44:32;;;;;;;;;;;;;;;7.94;76.43;101206.44;5060762;28;19953;-70
2023/04/14 07:46:57;;;;;;;;;;;;;;;8.00;74.64;101207.34;5044834;28;19932;-73
2023/04/14 07:49:23;;;;;;;;;;;;;;;8.09;74.79;101218.41;5031526;28;20987;-71
2023/04/14 07:51:49;;;;;;;;;;;;;;;8.11;73.85;101213.63;5033081;28;19932;-71
2023/04/14 07:54:15;;;;;;;;;;;;;;;8.34;74.23;101213.50;5056839;28;20340;-72
2023/04/14 07:56:41;;;;;;;;;;;;;;;8.29;74.42;101218.75;5064464;28;20400;-72
2023/04/14 07:59:06;;;;;;;;;;;;;;;8.46;74.50;101219.56;5048386;28;19939;-72
2023/04/14 08:01:34;;;;;;;;;;;;;;;8.61;73.91;101213.69;5063795;28;20389;-72
2023/04/14 08:03:59;;;;;;;;;;;;;;;8.71;72.70;101213.00;5044994;28;19962;-71
2023/04/14 08:06:26;;;;;;;;;;;;;;;8.98;72.89;101210.44;5058928;28;20335;-71
2023/04/14 08:08:52;;;;;;;;;;;;;;;9.22;70.12;101219.03;5071663;28;19927;-72
2023/04/14 08:11:18;;;;;;;;;;;;;;;9.47;70.29;101219.31;5057161;28;19935;-72
2023/04/14 08:13:43;;;;;;;;;;;;;;;9.78;66.27;101217.78;5060115;28;19952;-72
2023/04/14 08:16:09;;;;;;;;;;;;;;;10.02;65.82;101220.94;5044938;28;19938;-72
2023/04/14 08:18:35;;;;;;;;;;;;;;;10.08;64.40;101214.56;5079283;28;20024;-72
2023/04/14 08:21:01;;;;;;;;;;;;;;;10.09;64.47;101220.72;5044818;28;19968;-73
2023/04/14 08:23:26;;;;;;;;;;;;;;;10.47;63.61;101235.81;5060724;28;19963;-71
2023/04/14 08:25:52;;;;;;;;;;;;;;;10.65;61.61;101221.22;5059877;28;20040;-73
2023/04/14 08:28:17;;;;;;;;;;;;;;;10.71;62.87;101224.72;5055558;28;19935;-72
2023/04/14 08:30:43;;;;;;;;;;;;;;;10.53;62.17;101218.72;5031494;28;19938;-71
2023/04/14 08:33:08;;;;;;;;;;;;;;;10.56;61.53;101217.38;5067066;28;19945;-72
2023/04/14 08:35:34;;;;;;;;;;;;;;;10.61;62.43;101220.09;5053384;28;19952;-72
2023/04/14 08:38:00;;;;;;;;;;;;;;;10.54;61.51;101228.34;5058701;28;20011;-71
2023/04/14 08:40:32;;;;;;;;;;;;;;;10.49;61.38;101227.50;5065038;28;20035;-72
2023/04/14 08:42:57;;;;;;;;;;;;;;;10.72;62.00;101223.66;5079588;28;19952;-71
2023/04/14 08:45:23;;;;;;;;;;;;;;;11.01;60.90;101219.53;5066586;28;19945;-71
2023/04/14 08:47:51;;;;;;;;;;;;;;;11.02;61.03;101217.66;5066696;28;19952;-71
2023/04/14 08:50:21;;;;;;;;;;;;;;;11.38;59.38;101216.75;5061986;28;19945;-72
2023/04/14 08:52:48;;;;;;;;;;;;;;;11.74;57.31;101214.97;5046103;28;19938;-72
2023/04/14 08:55:14;;;;;;;;;;;;;;;11.28;58.89;101215.91;5032920;28;19960;-71
2023/04/14 08:57:42;;;;;;;;;;;;;;;11.83;57.80;101217.16;5062293;28;19941;-72
2023/04/14 09:00:08;;;;;;;;;;;;;;;11.73;58.39;101218.72;5033939;28;19937;-72
2023/04/14 09:02:34;;;;;;;;;;;;;;;11.98;56.81;101215.28;5076154;28;19969;-71
2023/04/14 09:05:00;;;;;;;;;;;;;;;11.83;58.19;101217.16;5048542;28;19958;-73
2023/04/14 09:07:26;;;;;;;;;;;;;;;12.07;57.78;101217.47;5068474;28;20400;-71
2023/04/14 09:09:51;;;;;;;;;;;;;;;12.26;56.29;101210.47;5076927;28;20020;-71
2023/04/14 09:12:19;;;;;;;;;;;;;;;12.51;54.75;101207.75;5065080;28;20024;-71
2023/04/14 09:14:48;;;;;;;;;;;;;;;12.02;55.26;101218.25;5048906;28;19957;-71
2023/04/14 09:17:16;;;;;;;;;;;;;;;11.89;57.36;101213.41;5058998;28;19943;-71
2023/04/14 09:19:42;;;;;;;;;;;;;;;12.35;55.59;101213.44;5050142;28;19929;-71
2023/04/14 09:22:08;;;;;;;;;;;;;;;12.20;55.44;101209.66;5044940;28;19963;-71
2023/04/14 09:24:34;;;;;;;;;;;;;;;11.91;56.48;101203.19;5048295;28;20050;-72
2023/04/14 09:27:00;;;;;;;;;;;;;;;12.18;55.30;101214.50;5062074;28;20028;-72
2023/04/14 09:29:26;;;;;;;;;;;;;;;12.19;55.33;101215.28;5060389;28;20416;-72
2023/04/14 09:31:52;;;;;;;;;;;;;;;12.17;55.50;101207.50;5047283;28;19936;-72
2023/04/14 09:34:19;;;;;;;;;;;;;;;12.53;56.88;101216.38;5054839;28;19955;-72
2023/04/14 09:36:58;;;;;;;;;;;;;;;12.26;57.13;101213.97;5065224;28;20385;-72
2023/04/14 09:39:25;;;;;;;;;;;;;;;12.01;55.75;101222.81;5063885;28;19935;-70
2023/04/14 09:41:50;;;;;;;;;;;;;;;12.23;54.67;101217.19;5048081;28;20514;-71
2023/04/14 09:44:16;;;;;;;;;;;;;;;12.51;55.38;101233.81;5044902;28;20058;-72
2023/04/14 09:47:01;;;;;;;;;;;;;;;12.57;54.25;101238.13;5061239;28;19933;-71
2023/04/14 09:49:27;;;;;;;;;;;;;;;12.61;55.33;101228.44;5059135;28;19929;-72
2023/04/14 09:51:54;;;;;;;;;;;;;;;12.68;54.57;101239.72;5046032;28;19933;-72
2023/04/14 09:54:25;;;;;;;;;;;;;;;12.35;54.90;101229.53;5060112;28;19956;-71
2023/04/14 09:56:54;;;;;;;;;;;;;;;12.20;54.80;101222.28;5058127;28;19935;-71
2023/04/14 09:59:33;;;;;;;;;;;;;;;11.86;56.12;101220.13;5060002;28;19940;-72
2023/04/14 10:01:59;;;;;;;;;;;;;;;12.23;55.32;101224.44;5055449;28;20702;-69
2023/04/14 10:04:27;;;;;;;;;;;;;;;12.61;55.68;101220.38;5060956;28;19965;-70
2023/04/14 10:06:59;;;;;;;;;;;;;;;12.22;55.69;101226.31;5045914;28;19933;-71
2023/04/14 10:09:26;;;;;;;;;;;;;;;12.55;53.46;101226.84;5062975;28;19985;-72
2023/04/14 10:12:14;;;;;;;;;;;;;;;12.74;54.55;101225.19;5043007;28;19978;-71
2023/04/14 10:14:40;;;;;;;;;;;;;;;12.43;53.70;101216.38;5057364;28;19955;-70
2023/04/14 10:17:06;;;;;;;;;;;;;;;12.79;54.25;101217.09;5059878;28;19937;-72
2023/04/14 10:19:32;;;;;;;;;;;;;;;12.70;52.91;101215.25;5076856;28;19945;-71
2023/04/14 10:21:58;;;;;;;;;;;;;;;12.81;53.42;101216.84;5058529;28;20459;-71
2023/04/14 10:24:26;;;;;;;;;;;;;;;11.93;53.72;101206.44;5059587;28;20045;-72
2023/04/14 10:26:52;;;;;;;;;;;;;;;12.60;53.57;101215.25;5061150;28;19942;-71
2023/04/14 10:29:18;;;;;;;;;;;;;;;12.30;54.66;101200.78;5054172;28;20022;-72
2023/04/14 10:31:48;;;;;;;;;;;;;;;12.18;54.54;101205.63;5065421;28;20016;-72
2023/04/14 10:34:15;;;;;;;;;;;;;;;12.57;54.53;101203.97;5045991;28;19955;-73
2023/04/14 10:36:41;;;;;;;;;;;;;;;12.85;53.17;101201.78;5056234;28;20047;-70
2023/04/14 10:39:08;;;;;;;;;;;;;;;12.83;52.69;101194.00;5062093;28;20415;-70
2023/04/14 10:41:46;;;;;;;;;;;;;;;12.86;53.47;101184.56;5061581;28;19950;-73
2023/04/14 10:44:24;;;;;;;;;;;;;;;13.29;52.56;101191.16;5040862;28;20036;-72
2023/04/14 10:46:50;;;;;;;;;;;;;;;13.21;52.40;101186.38;5055258;28;20011;-71
2023/04/14 10:49:16;;;;;;;;;;;;;;;13.33;52.43;101186.81;5061329;28;19961;-72
2023/04/14 10:51:43;;;;;;;;;;;;;;;13.23;51.43;101184.19;5057767;28;20668;-70
2023/04/14 10:54:16;;;;;;;;;;;;;;;13.14;52.87;101183.13;5038125;28;19955;-71
2023/04/14 10:57:02;;;;;;;;;;;;;;;12.88;52.88;101174.34;5052079;28;19945;-71
2023/04/14 10:59:28;;;;;;;;;;;;;;;13.07;51.86;101179.91;5054740;28;20031;-72
2023/04/14 11:01:53;;;;;;;;;;;;;;;12.85;51.86;101178.38;5058665;28;20108;-72
2023/04/14 11:04:19;;;;;;;;;;;;;;;13.02;51.27;101185.34;5060355;28;20051;-70
2023/04/14 11:06:49;;;;;;;;;;;;;;;12.93;51.04;101179.69;5044497;28;19950;-70
2023/04/14 11:09:22;;;;;;;;;;;;;;;13.08;51.36;101184.25;5037838;28;19947;-72
2023/04/14 11:11:48;;;;;;;;;;;;;;;13.28;52.28;101184.19;5047504;28;19967;-71
2023/04/14 11:14:16;;;;;;;;;;;;;;;12.70;52.37;101191.06;5062218;28;19957;-71
2023/04/14 11:16:43;;;;;;;;;;;;;;;12.98;52.30;101181.56;5066434;28;20017;-70
2023/04/14 11:19:13;;;;;;;;;;;;;;;13.11;53.50;101180.97;5056391;28;19945;-72
2023/04/14 11:21:48;;;;;;;;;;;;;;;13.28;52.36;101184.19;5047786;28;19984;-71
2023/04/14 11:24:15;;;;;;;;;;;;;;;12.97;54.18;101188.03;5057650;28;20669;-71
2023/04/14 11:26:43;;;;;;;;;;;;;;;13.42;53.76;101183.56;5055267;28;21311;-71
2023/04/14 11:29:08;;;;;;;;;;;;;;;13.22;53.85;101190.66;5062543;28;19944;-70
2023/04/14 11:31:34;;;;;;;;;;;;;;;13.02;54.28;101185.34;5055349;28;19935;-71
2023/04/14 11:34:02;;;;;;;;;;;;;;;13.28;54.04;101186.06;5053823;28;19947;-72
2023/04/14 11:36:28;;;;;;;;;;;;;;;12.94;54.56;101189.41;5054827;28;19955;-72
2023/04/14 11:38:54;;;;;;;;;;;;;;;12.56;56.13;101194.31;5043493;28;20319;-71
2023/04/14 11:41:20;;;;;;;;;;;;;;;12.54;56.01;101184.94;5076608;28;19975;-71
2023/04/14 11:43:47;;;;;;;;;;;;;;;11.95;57.27;101182.81;5072393;28;19949;-70
2023/04/14 11:46:14;;;;;;;;;;;;;;;11.89;57.41;101173.94;5042343;28;19973;-72
2023/04/14 11:48:39;;;;;;;;;;;;;;;12.32;56.60;101179.03;5025201;28;19932;-70
2023/04/14 11:51:05;;;;;;;;;;;;;;;12.13;56.22;101176.13;5061947;28;19936;-70
2023/04/14 11:53:31;;;;;;;;;;;;;;;12.05;56.83;101172.06;5056056;28;19958;-72
2023/04/14 11:55:59;;;;;;;;;;;;;;;12.09;56.93;101178.53;5040812;28;20030;-71
2023/04/14 11:58:26;;;;;;;;;;;;;;;12.28;56.98;101176.09;5058367;28;19932;-71
2023/04/14 12:00:52;;;;;;;;;;;;;;;12.43;56.01;101177.97;5026986;28;19986;-71
2023/04/14 12:03:19;;;;;;;;;;;;;;;12.14;56.68;101170.47;5057163;28;19955;-70
2023/04/14 12:05:44;;;;;;;;;;;;;;;12.42;56.90;101170.97;5028083;28;20427;-71
2023/04/14 12:08:11;;;;;;;;;;;;;;;12.28;56.83;101171.53;5045318;28;20074;-71
2023/04/14 12:10:38;;;;;;;;;;;;;;;12.34;57.19;101172.34;5066975;28;19989;-70
2023/04/14 12:13:07;;;;;;;;;;;;;;;12.22;57.73;101177.19;5044962;28;19931;-72
2023/04/14 12:15:42;;;;;;;;;;;;;;;12.57;55.87;101179.00;5059313;28;19956;-73
2023/04/14 12:18:09;;;;;;;;;;;;;;;12.71;55.10;101179.25;5061077;28;19992;-70
2023/04/14 12:20:40;;;;;;;;;;;;;;;12.05;57.02;101176.63;5071196;28;19950;-73
2023/04/14 12:23:06;;;;;;;;;;;;;;;12.24;57.34;101175.81;5049608;28;19946;-70
2023/04/14 12:25:32;;;;;;;;;;;;;;;12.64;55.83;101176.84;5060076;28;20260;-72
2023/04/14 12:27:58;;;;;;;;;;;;;;;12.74;55.45;101181.41;5051560;28;19943;-72
2023/04/14 12:30:25;;;;;;;;;;;;;;;12.58;55.81;101176.03;5058087;28;19940;-71
2023/04/14 12:32:51;;;;;;;;;;;;;;;12.33;55.77;101172.59;5054927;28;20136;-71
2023/04/14 12:35:21;;;;;;;;;;;;;;;12.62;55.99;101181.69;5062411;28;20454;-70
2023/04/14 12:37:48;;;;;;;;;;;;;;;13.24;54.90;101172.34;5054006;28;19931;-71
2023/04/14 12:40:15;;;;;;;;;;;;;;;12.39;55.98;101176.88;5041967;28;19941;-71
2023/04/14 12:42:45;;;;;;;;;;;;;;;12.98;55.60;101173.50;5065107;28;19957;-71